LICJ/PMO METAR and TAF weather

Enter ICAO airport designator
Station Type Date Time Source
LICJ METAR 2020/01/20 18:50 UTC NOAA

LICJ 201850Z 11003KT 070V170 9999 SCT065 15/06 Q1031


Station Type Date Time Source
LICJ Decoded METAR 2020/01/20 18:50 UTC NOAA

Palermo / Punta Raisi, Italy (LICJ) 38-11N 013-06E 21M
Jan 20, 2020 - 01:50 PM EST / 2020.01.20 1850 UTC
Wind: from the ESE (110 degrees) at 3 MPH (3 KT) (direction variable):0
Visibility: greater than 7 mile(s):0
Sky conditions: partly cloudy
Temperature: 59 F (15 C)
Dew Point: 42 F (6 C)
Relative Humidity: 54%
Pressure (altimeter): 30.45 in. Hg (1031 hPa)
ob: LICJ 201850Z 11003KT 070V170 9999 SCT065 15/06 Q1031
cycle: 19

Station Type Date Time Source
LICJ TAF 2020/01/20 18:21 UTC NOAA

TAF LICJ 201700Z 2018/2118 16012KT 9999 SCT030
BECMG 2020/2022 10008KT
BECMG 2106/2108 16012KT

Example: see airport list